Cameron Park Zoo Stampede

Overall Finish List

November 12, 2016


Pro-Fit Event Services LLC

10K

Place Name City Bib No Age Gender Age Group Total Time Pace
1 Iram Leon Austin TX 111 36 M 1 Top Fin 39:03.0 6:18/M
2 Bill Schroeder Georgetown TX 146 54 M 1 Master 39:44.5 6:25/M
3 Joe Juarez Woodway TX 100 30 M 1 30-34 40:10.8 6:29/M
4 Darius Guerrero Waco TX 91 19 M 1 15-19 43:00.4 6:56/M
5 Jessie Villalpando Mcgregor TX 171 33 M 2 30-34 44:26.0 7:10/M
6 Camille McCue Harker Heights TX 121 35 F 1 Top Fin 44:56.8 7:15/M
7 Hermino Carrillo Waco TX 48 28 M 1 25-29 45:19.2 7:19/M
8 Thomas McCue Harker Heights TX 122 22 M 1 20-24 46:37.5 7:31/M
9 Dylan Kirby Waco TX 107 23 M 2 20-24 47:16.8 7:37/M
10 Justin Venegas Hewitt TX 169 36 M 1 35-39 47:45.0 7:42/M
11 Mike Cervantez 199 28 M 2 25-29 47:49.1 7:43/M
12 James Dixon Belton TX 79 53 M 1 50-54 48:02.3 7:45/M
13 Julie Brannen Axtell TX 57 36 F 1 35-39 48:54.2 7:53/M
14 Eugenio Lugo Grapevine TX 182 60 M 1 60-64 49:34.3 8:00/M
15 Dealn Adams 188 33 M 3 30-34 49:59.9 8:04/M
16 Madison Rohre Woodway TX 143 16 F 1 15-19 50:07.7 8:05/M
17 Tommy Glockzin San Antonio TX 88 50 M 2 50-54 50:46.9 8:11/M
18 Jim Seidensticker Waco TX 148 45 M 1 45-49 50:49.5 8:12/M
19 Lindsay Gummelt Waco TX 92 28 F 1 25-29 50:55.6 8:13/M
20 Michael Seiler Eddy TX 150 54 M 3 50-54 51:25.5 8:18/M
21 Chase Kirby Waco TX 106 18 M 2 15-19 52:02.0 8:24/M
22 Christine Dixon Belton TX 78 55 F 1 Master 52:07.6 8:24/M
23 Jessica Mullins Gholson TX 131 23 F 1 20-24 52:13.7 8:25/M
24 Chelsey Crye Lorena TX 72 26 F 2 25-29 52:17.1 8:26/M
25 Rachel Boehme Harker Heights TX 55 27 F 3 25-29 52:32.1 8:28/M
26 Sarah Morath Houston TX 129 40 F 1 40-44 52:42.8 8:30/M
27 Adam Martel Waco TX 115 38 M 2 35-39 53:12.2 8:35/M
28 Tabitha Martel Waco TX 116 35 F 2 35-39 53:12.3 8:35/M
29 Curtis Quigley Mc Gregor TX 140 39 M 3 35-39 53:13.1 8:35/M
30 Ed Lee Copperas Cove TX 110 44 M 1 40-44 54:00.3 8:43/M
31 Brian Harris Burleson TX 22 47 M 2 45-49 54:01.0 8:43/M
32 Ben Simpson Woodway TX 151 36 M 4 35-39 54:10.3 8:44/M
33 Sandi Rains 193 54 F 1 50-54 54:11.4 8:44/M
34 Pete Boulette Temple TX 56 68 M 1 65-69 54:25.6 8:47/M
35 Jennifer Davis Waco TX 73 28 F 4 25-29 54:25.8 8:47/M
36 Annie Lobato Nolanville TX 113 35 F 3 35-39 55:02.4 8:53/M
37 Nicki Seidensticker Waco TX 149 43 F 2 40-44 55:27.3 8:57/M
38 Joshua Hays Hewitt TX 93 29 M 3 25-29 55:46.3 9:00/M
39 Karl Kling 195 34 M 4 30-34 55:47.9 9:00/M
40 Mayra Orozco Killeen TX 135 33 F 1 30-34 56:05.7 9:03/M
41 Trisha Wallace Troy TX 173 40 F 3 40-44 56:13.5 9:04/M
42 Stuart Lindland Fort Hood TX 112 46 M 3 45-49 56:31.3 9:07/M
43 Ronald Head 194 58 M 1 55-59 56:34.6 9:07/M
44 Katy Martinez Franklin TX 119 14 F 1 1-14 56:54.4 9:11/M
45 Felicia Smith Franklin TX 154 28 F 5 25-29 57:03.0 9:12/M
46 Preston Smith Woodway TX 156 12 M 1 1-14 57:37.8 9:18/M
47 Carrie Smith Woodway TX 153 40 F 4 40-44 57:40.4 9:18/M
48 Andy Martinez Ennis TX 118 40 M 2 40-44 58:03.2 9:22/M
49 Todd Sword Woodway TX 161 52 M 4 50-54 58:17.1 9:24/M
50 Natalie Horton Fort Worth TX 97 31 F 2 30-34 58:18.6 9:24/M
51 Sarah Freeland 197 32 F 3 30-34 58:20.2 9:25/M
52 David Marek Woodway TX 114 48 M 4 45-49 58:22.8 9:25/M
53 Allie Fuller Belton TX 190 38 F 4 35-39 58:23.7 9:25/M
54 Amanda Niemeyer China Spring TX 132 36 F 5 35-39 58:43.2 9:28/M
55 Jose Wallace Troy TX 172 39 M 5 35-39 59:05.1 9:32/M
56 Ethan Brown Waco TX 61 25 M 4 25-29 59:11.5 9:33/M
57 Stephanie Meyer Waco TX 124 37 F 6 35-39 59:19.4 9:34/M
58 Tiffany Morrison Temple TX 130 29 F 6 25-29 59:30.0 9:36/M
59 Caroline Wolf Waco TX 179 31 F 4 30-34 59:30.8 9:36/M
60 Beth Howard Waco TX 98 49 F 1 45-49 59:50.7 9:39/M
61 Jessie Moore 1253 48 M 5 45-49 59:51.9 9:39/M
62 Monica Rohre Woodway TX 144 43 F 5 40-44 1:00:04.9 9:41/M
63 Jessica Assink Waco TX 180 30 F 5 30-34 1:00:10.6 9:42/M
64 Alicia Glanz Killeen TX 87 30 F 6 30-34 1:00:13.1 9:43/M
65 Cayce Connell Waco TX 69 35 F 7 35-39 1:00:26.0 9:45/M
66 Kimberly Velarde Killeen TX 167 53 F 2 50-54 1:00:34.8 9:46/M
67 Drew Hubbard Waco TX 99 54 M 5 50-54 1:00:55.0 9:50/M
68 Eli Daniel Southlake TX 4 51 M 6 50-54 1:01:24.7 9:54/M
69 Wyndi Kadlacek Riesel TX 101 37 F 8 35-39 1:01:31.7 9:55/M
70 Nicole Schwartinsky Waco TX 1255 37 F 9 35-39 1:01:47.6 9:58/M
71 Heather Transou Jarrell TX 165 34 F 7 30-34 1:02:02.4 10:00/M
72 Brandy Orris Russellton PA 136 28 F 7 25-29 1:02:21.6 10:03/M
73 Laura Hopkins Waco TX 96 32 F 8 30-34 1:02:37.8 10:06/M
74 Peggy Wayne Mc Gregor TX 177 51 F 3 50-54 1:02:49.5 10:08/M
75 Jennifer Crosby Kyle TX 3 40 F 6 40-44 1:03:31.5 10:15/M
76 Quaid Marruffo San Antonio TX 8 25 M 5 25-29 1:03:32.5 10:15/M
77 Jennifer Villalpando Mcgregor TX 170 31 F 9 30-34 1:03:57.6 10:19/M
78 Leonna Putnam Robinson TX 183 49 F 2 45-49 1:04:31.5 10:24/M
79 Jolanta Miller Copperas Cove TX 125 55 F 1 55-59 1:04:32.7 10:25/M
80 Mary Smith Woodway TX 155 31 F 10 30-34 1:04:46.2 10:27/M
81 Brandi Carlton Killeen TX 64 31 F 11 30-34 1:04:49.5 10:27/M
82 Christopher Earles Hewitt TX 80 51 M 7 50-54 1:04:55.7 10:28/M
83 Eileen Stephens Gatesville TX 23 57 F 2 55-59 1:05:01.1 10:29/M
84 Becky Phillips Waco TX 138 47 F 3 45-49 1:05:15.7 10:31/M
85 Christi Tharpe Lorena TX 162 36 F 10 35-39 1:05:23.9 10:33/M
86 Dominique Brown Waco TX 60 36 F 11 35-39 1:05:28.5 10:34/M
87 Kanesha Moore Waco TX 128 38 F 12 35-39 1:05:32.8 10:34/M
88 Meredith Sutton 189 43 F 7 40-44 1:05:51.8 10:37/M
89 Alex Thomson Waco TX 51 53 M 8 50-54 1:05:56.1 10:38/M
90 Trey Thomson Waco TX 26 22 M 3 20-24 1:05:56.2 10:38/M
91 Abigail Rodewald Waco TX 142 23 F 2 20-24 1:05:59.9 10:39/M
92 Meredith Wilder Bryan TX 178 27 F 8 25-29 1:06:40.3 10:45/M
93 Donna Marucci Bryan TX 120 54 F 4 50-54 1:06:40.6 10:45/M
94 Roger Velarde Killeen TX 168 51 M 9 50-54 1:06:54.1 10:47/M
95 Jasmine Khan Waco TX 105 51 F 5 50-54 1:07:22.3 10:52/M
96 Abraham Palomo San Marcos TX 33 41 M 3 40-44 1:07:36.4 10:54/M
97 Amanda Palomo San Marcos TX 32 38 F 13 35-39 1:07:36.4 10:54/M
98 Brian Alleman Robinson TX 52 44 M 4 40-44 1:08:06.4 10:59/M
99 Stephanie Isbell 196 30 F 12 30-34 1:08:17.5 11:01/M
100 Caitlin Brown Waco TX 59 25 F 9 25-29 1:08:49.4 11:06/M
 
Place Name City Bib No Age Gender Age Group Total Time Pace
101 Janice Roberts 1256 43 F 8 40-44 1:08:52.2 11:06/M
102 Sandra Bigham Waco TX 54 63 F 1 60-64 1:09:03.4 11:08/M
103 Linda Garrett Eddy TX 84 65 F 1 65-69 1:09:03.5 11:08/M
104 Estephany Escobar Waco TX 82 28 F 10 25-29 1:09:11.5 11:10/M
105 Stephen Sloan Robinson TX 152 48 M 6 45-49 1:10:01.1 11:18/M
106 Anna Dick Temple TX 77 28 F 11 25-29 1:10:01.3 11:18/M
107 Kristi Miller Belton TX 126 43 F 9 40-44 1:10:14.9 11:20/M
108 Chris Helms Hutto TX 1 35 M 6 35-39 1:10:46.4 11:25/M
109 Allen Budd 191 72 M 1 70-99 1:11:56.0 11:36/M
110 Sydnie Catalina Franklin TX 67 14 F 2 1-14 1:11:58.5 11:36/M
111 James Snyder Rosebud TX 157 48 M 7 45-49 1:12:26.0 11:41/M
112 Susie Crelia 192 54 F 6 50-54 1:13:39.7 11:53/M
113 Diana Novak Robinson TX 133 34 F 13 30-34 1:13:52.5 11:55/M
114 Max Rothbaum Temple TX 184 33 M 5 30-34 1:14:25.5 12:00/M
115 Julie Elliott Belton TX 181 32 F 14 30-34 1:14:29.2 12:01/M
116 Richard Goad Temple TX 89 61 M 2 60-64 1:14:56.9 12:05/M
117 Nicole Catalina Franklin TX 66 44 F 10 40-44 1:15:26.5 12:10/M
118 Marjean Fahlenkamp Mcgregor TX 83 55 F 3 55-59 1:15:32.6 12:11/M
119 Sara Sulak Hillsboro TX 158 40 F 11 40-44 1:15:50.6 12:14/M
120 Katherine O'Connell New Braunfels TX 134 20 F 3 20-24 1:15:54.7 12:15/M
121 Riley Mitchell New Braunfels TX 127 20 M 4 20-24 1:15:54.8 12:15/M
122 Connie Bright Waco TX 58 55 F 4 55-59 1:15:55.3 12:15/M
123 Patricia Padron Elm Mott TX 137 46 F 4 45-49 1:16:36.5 12:21/M
124 Rosemary Warlick Woodway TX 174 56 F 5 55-59 1:16:38.6 12:22/M
125 Kari Davis Valley Mills TX 74 42 F 12 40-44 1:16:46.0 12:23/M
126 Daniel Earles Hewitt TX 81 20 M 5 20-24 1:17:40.0 12:32/M
127 Cathy Portwood Waco TX 139 43 F 13 40-44 1:18:12.1 12:37/M
128 Jesus Leon San Antonio TX 15 21 M 6 20-24 1:18:18.9 12:38/M
129 Dylan Czaplinski San Antonio TX 11 17 M 3 15-19 1:18:19.5 12:38/M
130 Christy Carr-Alleman Robinson TX 65 44 F 14 40-44 1:18:49.4 12:43/M
131 Erin Lawdermilk China Spring TX 108 18 F 2 15-19 1:18:49.9 12:43/M
132 Kneeley Lawdermilk China Spring TX 109 41 F 15 40-44 1:18:50.4 12:43/M
133 Lou Ann Sanders Robinson TX 145 60 F 2 60-64 1:19:28.9 12:49/M
134 Blanca Valdez Woodway TX 166 37 F 14 35-39 1:19:29.1 12:49/M
135 Kirsten Vandyke Temple TX 185 25 F 12 25-29 1:19:38.5 12:51/M
136 Rachel Rasmussen Woodway TX 141 26 F 13 25-29 1:19:45.1 12:52/M
137 Amy Stephens Gatesville TX 24 17 F 3 15-19 1:23:04.8 13:24/M
138 Joe Trevino Gatesville TX 25 18 M 4 15-19 1:23:04.9 13:24/M
139 Dianna Deleon Waco TX 76 50 F 7 50-54 1:23:40.4 13:30/M
140 Sara Warren China Spring TX 176 27 F 14 25-29 1:25:28.0 13:47/M
141 Denise Gattis Mc Gregor TX 86 51 F 8 50-54 1:26:13.3 13:54/M
142 Bobby Gattis Mc Gregor TX 85 60 M 3 60-64 1:26:15.2 13:55/M
143 Deshauna Hollie Waco TX 95 35 F 15 35-39 1:26:37.8 13:58/M
144 Maria Cervantez 200 65 F 2 65-69 1:28:09.7 14:13/M
145 Cheryl Toups China Spring TX 164 53 F 9 50-54 1:28:13.8 14:14/M
146 Christine Bryant Hewitt TX 62 54 F 10 50-54 1:29:48.1 14:29/M
147 Jennifer Warren Waco TX 175 27 F 15 25-29 1:33:57.0 15:09/M
148 Lindsey Thiele Waco TX 163 25 F 16 25-29 1:35:19.7 15:22/M
149 Karen Keeling Waco TX 102 55 F 6 55-59 1:35:19.7 15:22/M
150 Brandy Brown TX 38 36 F 16 35-39 1:40:22.0 16:11/M
151 Nancy Johnson TX 718 49 F 5 45-49 1:40:23.1 16:11/M
152 Jesse Calvillo Hewitt TX 36 56 M 2 55-59 1:44:25.9 16:50/M
153 Karen Calvillo Hewitt TX 35 48 F 6 45-49 1:44:26.0 16:51/M
154 Grace Richardson TX 46 28 F 17 25-29 1:48:30.0 17:30/M